Time;durP1;ratioP1;P1;durP2;ratioP2;P2;SDS_P1;SDS_P2;PMS_P1;PMS_P2;Temp;Humidity;BMP_temperature;BMP_pressure;BME280_temperature;BME280_humidity;BME280_pressure;Samples;Min_cycle;Max_cycle;Signal;HPM_P1;HPM_P2
2022/08/17 00:01:59;;;;;;;11.18;5.85;;;;;;;17.62;100.00;92934.41;5091574;28;20117;-75
2022/08/17 00:04:26;;;;;;;16.73;7.55;;;;;;;17.53;100.00;92939.34;5094721;28;20101;-75
2022/08/17 00:06:54;;;;;;;12.68;7.18;;;;;;;17.48;100.00;92936.75;5096401;28;20044;-75
2022/08/17 00:09:21;;;;;;;14.98;7.22;;;;;;;17.44;100.00;92933.91;5091721;28;20408;-75
2022/08/17 00:11:49;;;;;;;14.20;7.53;;;;;;;17.47;100.00;92930.00;5097810;28;20043;-75
2022/08/17 00:14:18;;;;;;;16.15;8.38;;;;;;;17.48;100.00;92934.94;5101357;28;20043;-76
2022/08/17 00:16:47;;;;;;;11.57;6.47;;;;;;;17.41;100.00;92936.25;5102361;28;20050;-75
2022/08/17 00:19:17;;;;;;;13.70;6.38;;;;;;;17.36;100.00;92935.19;5101353;28;20051;-74
2022/08/17 00:21:47;;;;;;;7.93;6.00;;;;;;;17.30;100.00;92922.44;5100640;28;20056;-75
2022/08/17 00:24:17;;;;;;;10.73;6.13;;;;;;;17.29;100.00;92937.25;5102088;28;20059;-75
2022/08/17 00:26:43;;;;;;;9.18;6.35;;;;;;;17.26;100.00;92929.97;5102546;28;20047;-75
2022/08/17 00:29:10;;;;;;;10.10;6.57;;;;;;;17.23;100.00;92930.50;5100465;28;20129;-75
2022/08/17 00:31:37;;;;;;;9.30;6.07;;;;;;;17.19;100.00;92932.84;5101004;28;20045;-74
2022/08/17 00:34:07;;;;;;;11.27;6.55;;;;;;;17.15;100.00;92931.00;5102396;28;20055;-74
2022/08/17 00:36:35;;;;;;;11.75;6.75;;;;;;;17.10;100.00;92929.19;5100411;28;20079;-75
2022/08/17 00:39:01;;;;;;;12.68;6.55;;;;;;;17.04;100.00;92930.22;5100052;28;20083;-75
2022/08/17 00:41:29;;;;;;;11.65;7.43;;;;;;;17.03;100.00;92926.84;5102004;28;20506;-75
2022/08/17 00:43:59;;;;;;;11.45;7.47;;;;;;;17.02;100.00;92925.25;5099529;28;20449;-74
2022/08/17 00:46:28;;;;;;;13.13;7.70;;;;;;;16.99;100.00;92925.00;5101988;28;20048;-75
2022/08/17 00:48:56;;;;;;;14.85;7.95;;;;;;;16.86;100.00;92906.28;5100562;28;20052;-75
2022/08/17 00:51:31;;;;;;;12.60;7.85;;;;;;;16.87;100.00;92915.63;5099614;28;20043;-75
2022/08/17 00:54:02;;;;;;;16.35;8.65;;;;;;;16.88;100.00;92922.38;5098388;28;20117;-75
2022/08/17 00:56:34;;;;;;;14.85;8.15;;;;;;;16.85;100.00;92909.13;5099470;28;20495;-75
2022/08/17 00:59:05;;;;;;;13.13;8.65;;;;;;;16.73;100.00;92902.34;5100155;28;20050;-74
2022/08/17 01:01:32;;;;;;;12.65;8.73;;;;;;;16.75;100.00;92912.47;5097185;28;20052;-75
2022/08/17 01:04:01;;;;;;;13.25;8.13;;;;;;;16.69;100.00;92915.06;5099850;28;20040;-75
2022/08/17 01:06:29;;;;;;;12.20;7.50;;;;;;;16.46;100.00;92879.97;5101342;28;20051;-75
2022/08/17 01:08:58;;;;;;;10.82;7.28;;;;;;;16.63;100.00;92912.69;5100270;28;20048;-75
2022/08/17 01:11:25;;;;;;;12.35;8.00;;;;;;;16.68;100.00;92920.50;5099508;28;20450;-74
2022/08/17 01:13:53;;;;;;;9.88;7.07;;;;;;;16.63;100.00;92921.28;5100880;28;20091;-75
2022/08/17 01:16:24;;;;;;;10.05;6.72;;;;;;;16.62;100.00;92918.91;5100719;28;20436;-75
2022/08/17 01:18:54;;;;;;;10.60;7.22;;;;;;;16.67;100.00;92924.88;5098415;28;20071;-75
2022/08/17 01:21:29;;;;;;;11.90;7.78;;;;;;;16.65;100.00;92915.81;5100788;28;20507;-75
2022/08/17 01:23:57;;;;;;;11.68;7.10;;;;;;;16.56;100.00;92903.34;5097134;28;20040;-75
2022/08/17 01:26:24;;;;;;;12.65;7.03;;;;;;;16.60;100.00;92908.78;5098948;28;20415;-75
2022/08/17 01:28:52;;;;;;;10.48;7.40;;;;;;;16.63;100.00;92926.44;5100464;28;20856;-75
2022/08/17 01:31:19;;;;;;;9.98;7.25;;;;;;;16.60;100.00;92916.56;5099857;28;20055;-75
2022/08/17 01:33:46;;;;;;;8.48;6.32;;;;;;;16.57;100.00;92911.88;5098964;28;20048;-76
2022/08/17 01:36:13;;;;;;;8.38;6.45;;;;;;;16.56;100.00;92907.75;5100471;28;20051;-75
2022/08/17 01:38:40;;;;;;;10.30;7.32;;;;;;;16.50;100.00;92904.38;5100249;28;20051;-74
2022/08/17 01:41:11;;;;;;;13.68;6.05;;;;;;;16.47;100.00;92904.84;5098816;28;20051;-74
2022/08/17 01:43:44;;;;;;;10.43;6.10;;;;;;;16.45;100.00;92903.56;5099238;28;20040;-74
2022/08/17 01:46:15;;;;;;;12.02;7.18;;;;;;;16.37;100.00;92899.63;5097979;28;20389;-75
2022/08/17 01:48:46;;;;;;;10.18;6.53;;;;;;;16.32;100.00;92907.38;5100265;28;20137;-75
2022/08/17 01:51:13;;;;;;;10.50;6.47;;;;;;;16.17;100.00;92894.09;5098878;28;20485;-75
2022/08/17 01:53:44;;;;;;;6.90;5.80;;;;;;;16.21;100.00;92915.13;5093135;28;20040;-75
2022/08/17 01:56:14;;;;;;;8.43;5.80;;;;;;;16.19;100.00;92913.81;5106666;28;20040;-75
2022/08/17 01:58:41;;;;;;;8.20;5.80;;;;;;;16.18;100.00;92910.44;5109334;28;20598;-75
2022/08/17 02:01:10;;;;;;;8.32;5.63;;;;;;;16.17;100.00;92911.47;5109010;28;20550;-75
2022/08/17 02:03:38;;;;;;;7.32;5.88;;;;;;;16.09;100.00;92923.09;5109234;28;20042;-75
2022/08/17 02:06:06;;;;;;;8.52;6.55;;;;;;;16.09;100.00;92920.50;5109388;28;20063;-75
2022/08/17 02:08:34;;;;;;;8.55;6.63;;;;;;;16.10;100.00;92927.22;5109165;28;20088;-75
2022/08/17 02:11:02;;;;;;;10.27;6.72;;;;;;;16.06;100.00;92915.81;5109342;28;20069;-76
2022/08/17 02:13:32;;;;;;;11.43;6.75;;;;;;;16.11;100.00;92918.44;5109156;28;20096;-75
2022/08/17 02:15:59;;;;;;;9.85;6.32;;;;;;;16.12;100.00;92924.41;5108973;28;20453;-75
2022/08/17 02:18:26;;;;;;;9.95;6.50;;;;;;;16.09;100.00;92917.91;5108784;28;20495;-75
2022/08/17 02:20:53;;;;;;;8.43;6.20;;;;;;;16.07;100.00;92917.38;5109048;28;20534;-75
2022/08/17 02:23:24;;;;;;;8.43;5.85;;;;;;;16.09;100.00;92917.91;5108960;28;20052;-75
2022/08/17 02:25:51;;;;;;;9.23;6.32;;;;;;;16.08;100.00;92923.34;5109064;28;20409;-75
2022/08/17 02:28:18;;;;;;;7.97;5.88;;;;;;;16.05;100.00;92916.84;5109477;28;20048;-75
2022/08/17 02:30:46;;;;;;;6.88;5.40;;;;;;;15.89;100.00;92908.94;5109143;28;20040;-75
2022/08/17 02:33:13;;;;;;;9.95;5.90;;;;;;;15.94;100.00;92918.59;5109066;28;20542;-75
2022/08/17 02:35:41;;;;;;;7.03;5.50;;;;;;;15.91;100.00;92916.47;5108924;28;20035;-76
2022/08/17 02:38:09;;;;;;;9.48;6.05;;;;;;;15.90;100.00;92925.28;5108946;28;20892;-76
2022/08/17 02:40:39;;;;;;;8.85;6.43;;;;;;;15.83;100.00;92916.94;5109039;28;20392;-76
2022/08/17 02:43:07;;;;;;;9.90;5.68;;;;;;;15.84;100.00;92918.50;5110694;28;20052;-77
2022/08/17 02:45:35;;;;;;;6.65;5.20;;;;;;;15.79;100.00;92924.44;5112996;28;20459;-76
2022/08/17 02:48:04;;;;;;;7.82;5.38;;;;;;;15.79;100.00;92926.25;5113110;28;20039;-79
2022/08/17 02:50:31;;;;;;;8.18;5.90;;;;;;;15.76;100.00;92928.31;5112988;28;20050;-76
2022/08/17 02:52:58;;;;;;;8.45;5.47;;;;;;;15.74;100.00;92932.94;5112754;28;20487;-80
2022/08/17 02:55:27;;;;;;;9.98;6.03;;;;;;;15.64;100.00;92912.16;5113036;28;20052;-77
2022/08/17 02:57:54;;;;;;;9.38;5.55;;;;;;;15.64;100.00;92919.91;5112866;28;20039;-77
2022/08/17 03:00:32;;;;;;;8.38;5.63;;;;;;;15.63;100.00;92920.94;5112972;28;20468;-76
2022/08/17 03:03:00;;;;;;;8.25;5.78;;;;;;;15.52;100.00;92914.94;5112651;28;20073;-75
2022/08/17 03:05:30;;;;;;;9.00;5.57;;;;;;;15.60;100.00;92931.81;5112938;28;20039;-76
2022/08/17 03:07:57;;;;;;;7.80;5.40;;;;;;;15.56;100.00;92934.09;5113012;28;20056;-75
2022/08/17 03:10:24;;;;;;;6.50;5.65;;;;;;;15.54;100.00;92933.56;5112484;28;20051;-75
2022/08/17 03:12:53;;;;;;;8.00;5.28;;;;;;;15.56;100.00;92933.31;5112582;28;20190;-75
2022/08/17 03:15:22;;;;;;;8.13;5.50;;;;;;;15.50;100.00;92932.50;5112434;28;20051;-75
2022/08/17 03:17:50;;;;;;;7.78;5.68;;;;;;;15.54;100.00;92937.94;5112142;28;20044;-75
2022/08/17 03:20:18;;;;;;;8.20;5.90;;;;;;;15.50;100.00;92938.47;5103111;28;20108;-75
2022/08/17 03:22:49;;;;;;;7.03;5.63;;;;;;;15.46;100.00;92939.97;5106836;28;20408;-75
2022/08/17 03:25:20;;;;;;;8.57;6.03;;;;;;;15.41;100.00;92937.34;5092621;28;20048;-75
2022/08/17 03:27:47;;;;;;;8.57;5.65;;;;;;;15.39;100.00;92936.03;5092132;28;20126;-75
2022/08/17 03:30:14;;;;;;;9.60;6.47;;;;;;;15.46;100.00;92946.97;5092416;28;20059;-75
2022/08/17 03:32:44;;;;;;;6.85;5.53;;;;;;;15.46;100.00;92949.56;5092152;28;20047;-75
2022/08/17 03:35:13;;;;;;;8.25;5.75;;;;;;;15.42;100.00;92940.72;5091894;28;20039;-75
2022/08/17 03:37:40;;;;;;;7.25;5.32;;;;;;;15.42;100.00;92945.91;5091370;28;20541;-76
2022/08/17 03:40:10;;;;;;;8.98;5.00;;;;;;;15.44;100.00;92941.25;5090621;28;20044;-75
2022/08/17 03:42:38;;;;;;;8.18;5.25;;;;;;;15.42;100.00;92941.50;5090990;28;20059;-76
2022/08/17 03:45:08;;;;;;;7.57;5.65;;;;;;;15.34;100.00;92941.94;5105142;28;20048;-75
2022/08/17 03:58:37;;;;;;;7.07;5.45;;;;;;;15.34;100.00;92950.50;5093392;28;20177;-75
2022/08/17 04:01:05;;;;;;;8.50;5.80;;;;;;;15.14;100.00;92916.69;5101923;28;20048;-75
2022/08/17 04:03:32;;;;;;;9.55;6.47;;;;;;;15.40;100.00;92947.94;5090189;28;20060;-75
2022/08/17 04:06:01;;;;;;;8.57;5.97;;;;;;;15.38;100.00;92948.19;5090429;28;20040;-76
2022/08/17 04:08:27;;;;;;;7.50;5.80;;;;;;;15.43;100.00;92956.00;5090260;28;20504;-76
2022/08/17 04:10:57;;;;;;;10.80;6.07;;;;;;;15.41;100.00;92954.69;5090819;28;20063;-75
2022/08/17 04:13:23;;;;;;;8.73;5.97;;;;;;;15.45;100.00;92958.34;5090201;28;20044;-76
2022/08/17 04:15:50;;;;;;;10.27;5.95;;;;;;;15.49;100.00;92967.19;5090201;28;20052;-75
2022/08/17 04:18:18;;;;;;;9.05;5.47;;;;;;;15.46;100.00;92965.84;5088039;28;20477;-75
2022/08/17 04:20:45;;;;;;;8.15;5.32;;;;;;;15.36;100.00;92953.63;5088961;28;20097;-75
2022/08/17 04:23:15;;;;;;;8.43;5.65;;;;;;;15.42;100.00;92967.38;5089832;28;20108;-76
2022/08/17 04:25:44;;;;;;;9.70;6.00;;;;;;;15.45;100.00;92964.31;5090051;28;20047;-76
2022/08/17 04:28:12;;;;;;;10.60;6.82;;;;;;;15.46;100.00;92967.69;5089553;28;20048;-76
2022/08/17 04:30:39;;;;;;;9.07;6.25;;;;;;;15.43;100.00;92953.44;5089895;28;20379;-76
2022/08/17 04:33:09;;;;;;;8.75;6.47;;;;;;;15.38;100.00;92940.44;5090106;28;20082;-76
2022/08/17 04:38:17;;;;;;;9.13;6.85;;;;;;;15.68;100.00;92965.00;5102089;27;1327224;-75
2022/08/17 04:43:30;;;;;;;14.82;10.55;;;;;;;15.42;100.00;92974.38;5122919;28;20086;-75
2022/08/17 04:46:00;;;;;;;11.30;7.40;;;;;;;15.12;100.00;92984.16;5117673;28;20122;-74
2022/08/17 04:48:29;;;;;;;12.32;9.13;;;;;;;15.23;100.00;92985.84;5126863;28;20054;-74
2022/08/17 04:50:58;;;;;;;11.63;9.23;;;;;;;15.42;100.00;92982.13;5127473;28;20040;-74
2022/08/17 04:53:27;;;;;;;11.75;8.80;;;;;;;15.52;100.00;92976.25;5126887;28;20441;-74
2022/08/17 04:55:56;;;;;;;13.45;8.98;;;;;;;15.72;100.00;92991.19;5127011;28;20509;-74
2022/08/17 04:58:23;;;;;;;11.93;8.10;;;;;;;15.73;100.00;92959.06;5126806;28;20051;-74
2022/08/17 05:00:49;;;;;;;9.55;7.43;;;;;;;16.00;100.00;92990.13;5127081;28;20047;-75
2022/08/17 05:03:16;;;;;;;9.60;7.40;;;;;;;16.06;100.00;92988.34;5122721;28;20058;-74
2022/08/17 05:05:48;;;;;;;11.45;7.75;;;;;;;16.13;100.00;92982.97;5106519;28;20036;-74
2022/08/17 05:08:16;;;;;;;9.65;7.32;;;;;;;16.23;100.00;92992.59;5106258;28;20055;-73
2022/08/17 05:10:44;;;;;;;11.77;7.72;;;;;;;16.37;100.00;92985.16;5106236;28;20488;-73
2022/08/17 05:13:14;;;;;;;10.30;7.53;;;;;;;16.49;100.00;92992.75;5106101;28;20549;-74
2022/08/17 05:15:43;;;;;;;9.00;7.03;;;;;;;16.60;100.00;92996.97;5106303;28;20131;-74
2022/08/17 05:18:09;;;;;;;10.18;7.50;;;;;;;16.63;100.00;92986.09;5105881;28;20048;-74
2022/08/17 05:20:37;;;;;;;11.40;8.25;;;;;;;16.67;100.00;92976.75;5106152;28;20040;-75
2022/08/17 05:23:06;;;;;;;10.75;7.28;;;;;;;16.87;100.00;93005.63;5106212;28;20052;-75
2022/08/17 05:25:36;;;;;;;10.20;8.30;;;;;;;16.89;100.00;93004.34;5105845;28;20079;-78
2022/08/17 05:28:05;;;;;;;13.15;7.85;;;;;;;16.96;100.00;93012.66;5106124;28;20123;-79
2022/08/17 05:30:33;;;;;;;12.98;7.40;;;;;;;17.09;100.00;93011.44;5105730;28;20048;-78
2022/08/17 05:33:01;;;;;;;11.60;6.85;;;;;;;17.21;100.00;93007.84;5105746;28;20495;-77
2022/08/17 05:35:31;;;;;;;10.15;6.68;;;;;;;17.28;100.00;93011.00;5106032;28;20536;-77
2022/08/17 05:37:58;;;;;;;7.82;5.93;;;;;;;17.36;100.00;93007.88;5105235;28;20130;-79
2022/08/17 05:40:26;;;;;;;8.88;6.45;;;;;;;17.36;100.00;93005.28;5106033;28;20461;-77
2022/08/17 05:43:06;;;;;;;8.35;5.80;;;;;;;17.50;100.00;93005.56;5105372;28;20044;-77
2022/08/17 05:45:34;;;;;;;10.52;6.10;;;;;;;17.67;100.00;93011.59;5092649;28;20040;-77
2022/08/17 05:48:00;;;;;;;10.27;6.20;;;;;;;17.80;100.00;93016.25;5100978;28;20040;-77
2022/08/17 05:50:33;;;;;;;9.88;6.35;;;;;;;17.85;100.00;93005.88;5091776;28;20044;-76
2022/08/17 05:53:05;;;;;;;8.50;6.07;;;;;;;18.01;100.00;92998.06;5092155;28;20385;-76
2022/08/17 05:55:42;;;;;;;9.63;5.78;;;;;;;18.15;100.00;93001.72;5091852;28;20097;-75
2022/08/17 05:58:21;;;;;;;13.18;6.47;;;;;;;18.41;100.00;93011.28;5091641;28;20872;-76
2022/08/17 06:00:54;;;;;;;7.97;5.50;;;;;;;18.61;100.00;93010.47;5091436;28;20106;-76
2022/08/17 06:03:49;;;;;;;13.65;6.90;;;;;;;18.81;100.00;93004.44;5089573;28;20499;-76
2022/08/17 06:06:37;;;;;;;16.88;5.50;;;;;;;19.09;100.00;93015.28;5076630;28;20055;-76
2022/08/17 06:09:24;;;;;;;10.05;6.07;;;;;;;19.33;100.00;93016.47;5091448;28;20571;-76
2022/08/17 06:11:55;;;;;;;9.50;5.32;;;;;;;19.59;100.00;93019.69;5091454;28;20040;-76
2022/08/17 06:14:38;;;;;;;10.82;5.07;;;;;;;19.71;100.00;93018.56;5091667;28;20044;-76
2022/08/17 06:17:11;;;;;;;9.20;5.13;;;;;;;20.03;100.00;93025.94;5091182;28;20569;-77
2022/08/17 06:19:41;;;;;;;10.75;5.45;;;;;;;20.30;100.00;93018.66;5091205;28;20496;-77
2022/08/17 06:22:11;;;;;;;7.03;5.00;;;;;;;20.33;100.00;93014.72;5078182;28;20049;-78
2022/08/17 06:24:42;;;;;;;9.63;5.70;;;;;;;20.69;100.00;93024.84;5089427;28;20076;-77
2022/08/17 06:27:16;;;;;;;6.68;4.85;;;;;;;20.99;100.00;93022.94;5091135;28;20052;-77
2022/08/17 06:29:50;;;;;;;10.18;5.55;;;;;;;21.34;100.00;93020.94;5091413;28;20059;-77
2022/08/17 06:32:17;;;;;;;14.50;6.13;;;;;;;21.56;98.19;93026.69;5076828;28;20496;-78
2022/08/17 06:34:45;;;;;;;17.88;6.95;;;;;;;21.73;98.33;93032.22;5091150;28;20048;-78
2022/08/17 06:37:36;;;;;;;24.50;7.53;;;;;;;22.08;100.00;93021.47;5090687;28;20056;-77
2022/08/17 06:40:19;;;;;;;11.43;5.45;;;;;;;22.36;99.99;93026.78;5091035;28;20047;-78
2022/08/17 06:42:53;;;;;;;7.65;5.40;;;;;;;22.64;99.15;93031.31;5091057;28;20044;-77
2022/08/17 06:45:27;;;;;;;7.85;5.32;;;;;;;22.51;95.56;93028.38;5090949;28;20044;-77
2022/08/17 06:48:01;;;;;;;8.90;4.75;;;;;;;22.83;95.07;93029.38;5090944;28;20051;-79
2022/08/17 06:50:35;;;;;;;9.57;4.88;;;;;;;23.09;93.87;93033.34;5090621;28;20492;-78
2022/08/17 06:53:10;;;;;;;8.02;4.75;;;;;;;23.46;91.86;93031.59;5090790;28;20127;-78
2022/08/17 06:55:45;;;;;;;9.35;5.05;;;;;;;23.75;88.62;93034.91;5090880;28;20040;-78
2022/08/17 06:58:14;;;;;;;10.50;4.90;;;;;;;24.00;87.26;93038.81;5090626;28;20416;-78
2022/08/17 07:00:46;;;;;;;10.20;5.18;;;;;;;24.19;82.48;93047.56;5089776;28;20246;-78
2022/08/17 07:03:22;;;;;;;9.45;4.85;;;;;;;24.46;83.45;93043.25;5090355;28;20434;-78
2022/08/17 07:05:53;;;;;;;7.03;4.25;;;;;;;24.72;81.09;93042.63;5090403;28;20056;-78
2022/08/17 07:08:32;;;;;;;7.00;4.18;;;;;;;24.97;80.79;93035.16;5090234;28;20409;-79
2022/08/17 07:11:04;;;;;;;9.68;3.95;;;;;;;25.17;81.61;93041.69;5077045;28;20089;-79
2022/08/17 07:13:42;;;;;;;8.88;4.18;;;;;;;25.43;79.70;93044.41;5090341;28;20044;-78
2022/08/17 07:16:20;;;;;;;7.45;3.75;;;;;;;25.65;77.12;93031.44;5090185;28;20098;-79
2022/08/17 07:18:49;;;;;;;7.05;3.38;;;;;;;26.01;72.58;93040.91;5090332;28;20127;-79
2022/08/17 07:21:29;;;;;;;5.93;3.28;;;;;;;25.83;68.58;93042.75;5090357;28;20047;-79
2022/08/17 07:24:11;;;;;;;5.32;2.90;;;;;;;26.01;69.66;93041.66;5090013;28;20101;-79
2022/08/17 07:26:38;;;;;;;5.85;3.15;;;;;;;25.56;68.61;93040.13;5090043;28;20530;-79
2022/08/17 07:29:05;;;;;;;7.90;3.88;;;;;;;25.70;71.74;93042.59;5089845;28;20602;-79
2022/08/17 07:31:34;;;;;;;6.15;3.20;;;;;;;25.92;70.94;93034.84;5090021;28;20098;-79
2022/08/17 07:34:07;;;;;;;9.52;2.95;;;;;;;25.97;67.54;93038.09;5090165;28;20119;-79
2022/08/17 07:36:34;;;;;;;6.03;3.20;;;;;;;26.21;69.13;93041.31;5090016;28;20503;-78
2022/08/17 07:39:02;;;;;;;6.28;3.20;;;;;;;26.15;66.11;93041.47;5089676;28;20143;-80
2022/08/17 07:41:39;;;;;;;6.07;2.97;;;;;;;26.52;69.66;93030.59;5089512;28;20062;-79
2022/08/17 07:44:12;;;;;;;5.38;3.00;;;;;;;26.77;65.51;93045.84;5089975;28;20572;-79
2022/08/17 07:49:38;;;;;;;4.90;2.95;;;;;;;26.98;64.52;93037.28;5090131;28;20055;-80
2022/08/17 07:52:08;;;;;;;5.75;2.90;;;;;;;27.25;67.08;93030.00;5089752;28;20048;-80
2022/08/17 07:54:38;;;;;;;8.57;4.22;;;;;;;27.28;64.00;93030.16;5089607;28;20048;-80
2022/08/17 07:57:45;;;;;;;8.52;3.55;;;;;;;27.47;65.48;93029.72;5089397;28;20052;-80
2022/08/17 08:00:22;;;;;;;8.10;3.38;;;;;;;27.85;65.49;93032.56;5089756;28;20048;-81
2022/08/17 08:03:03;;;;;;;7.10;3.95;;;;;;;27.90;61.33;93034.25;5089622;28;20091;-81
2022/08/17 08:05:31;;;;;;;5.13;3.72;;;;;;;27.67;60.18;93043.25;5089275;28;20040;-81
2022/08/17 08:08:00;;;;;;;7.05;3.80;;;;;;;27.17;62.67;93028.97;5089527;28;20097;-82
2022/08/17 08:10:32;;;;;;;6.85;3.67;;;;;;;27.57;65.59;93025.91;5089164;28;20492;-81
2022/08/17 08:13:08;;;;;;;5.28;3.05;;;;;;;27.09;62.43;93030.56;5089161;28;20135;-82
2022/08/17 08:15:38;;;;;;;5.43;3.72;;;;;;;27.26;64.71;93021.00;5089730;28;20032;-80
2022/08/17 08:18:21;;;;;;;5.00;3.38;;;;;;;27.85;64.83;93008.81;5089533;28;20056;-80
2022/08/17 08:20:51;;;;;;;9.57;3.83;;;;;;;28.16;63.73;93012.88;5089285;28;20040;-80
2022/08/17 08:23:32;;;;;;;5.07;3.38;;;;;;;28.45;63.33;93013.09;5089480;28;20048;-81
2022/08/17 08:26:12;;;;;;;6.47;3.30;;;;;;;28.26;60.12;93015.16;5086708;28;20044;-81
2022/08/17 08:28:48;;;;;;;5.75;3.55;;;;;;;28.40;58.96;93014.84;5087745;28;20127;-81
2022/08/17 08:31:26;;;;;;;5.82;3.25;;;;;;;27.43;60.74;93007.69;5089073;28;20557;-82
2022/08/17 08:34:07;;;;;;;7.20;3.42;;;;;;;28.09;64.06;92999.44;5088845;28;20089;-80
2022/08/17 08:36:45;;;;;;;5.32;3.45;;;;;;;28.18;60.54;93005.41;5087848;28;20056;-81
2022/08/17 08:39:20;;;;;;;7.38;3.28;;;;;;;28.56;61.57;92998.38;5088244;28;20052;-81
2022/08/17 08:41:57;;;;;;;8.30;4.00;;;;;;;28.80;60.33;93002.88;5089386;28;20496;-81
2022/08/17 08:44:43;;;;;;;6.85;3.70;;;;;;;28.85;58.43;93009.06;5088807;28;20090;-81
2022/08/17 08:47:20;;;;;;;4.82;3.55;;;;;;;29.21;62.44;92995.06;5088389;28;20131;-80
2022/08/17 08:50:04;;;;;;;8.60;3.88;;;;;;;29.41;59.58;92986.53;5087920;28;20055;-82
2022/08/17 08:53:00;;;;;;;5.50;3.25;;;;;;;29.31;55.85;92998.38;5088569;28;20044;-81
2022/08/17 08:55:36;;;;;;;5.15;3.05;;;;;;;29.26;56.44;92996.72;5088810;28;20055;-81
2022/08/17 08:58:10;;;;;;;8.35;3.88;;;;;;;29.20;56.13;92964.44;5088405;28;20048;-81
2022/08/17 09:00:42;;;;;;;3.67;2.78;;;;;;;29.44;56.86;92994.56;5088123;28;20043;-82
2022/08/17 09:03:31;;;;;;;5.88;3.13;;;;;;;29.83;56.54;92978.28;5088182;28;20055;-81
2022/08/17 09:06:26;;;;;;;5.55;2.80;;;;;;;30.08;55.94;92988.75;5081995;28;20063;-81
2022/08/17 09:09:07;;;;;;;4.93;2.88;;;;;;;29.85;54.21;92994.59;5087044;28;20048;-81
2022/08/17 09:11:44;;;;;;;5.78;2.97;;;;;;;30.27;55.33;92985.47;5089067;28;20043;-81
2022/08/17 09:14:16;;;;;;;5.85;3.38;;;;;;;30.40;53.04;92991.47;5086975;28;20047;-81
2022/08/17 09:16:47;;;;;;;5.80;3.35;;;;;;;30.64;52.88;92986.38;5088960;28;20130;-83
2022/08/17 09:19:18;;;;;;;6.68;3.17;;;;;;;30.85;52.17;92975.50;5089027;28;20113;-82
2022/08/17 09:21:58;;;;;;;5.13;3.65;;;;;;;30.03;52.12;92973.09;5089005;28;20131;-82
2022/08/17 09:24:31;;;;;;;4.40;3.15;;;;;;;30.20;53.75;92961.47;5089154;28;20044;-82
2022/08/17 09:27:04;;;;;;;6.07;3.10;;;;;;;30.65;50.06;92982.59;5086892;28;20052;-82
2022/08/17 09:29:37;;;;;;;5.40;2.78;;;;;;;30.84;51.19;92957.28;5092380;28;20407;-83
2022/08/17 09:32:19;;;;;;;4.13;2.90;;;;;;;31.37;50.43;92983.47;5092517;28;20146;-82
2022/08/17 09:34:51;;;;;;;5.82;3.15;;;;;;;31.66;48.83;92986.69;5092804;28;20161;-82
2022/08/17 09:37:27;;;;;;;6.00;3.38;;;;;;;30.48;48.54;92979.19;5092452;28;20048;-82
2022/08/17 09:40:08;;;;;;;5.45;3.30;;;;;;;30.57;47.65;92963.09;5092847;28;20101;-83
2022/08/17 09:42:44;;;;;;;5.72;3.60;;;;;;;30.53;49.84;92980.78;5092705;28;20138;-82
2022/08/17 09:45:25;;;;;;;5.13;3.15;;;;;;;28.16;53.01;92968.00;5092123;28;20052;-82
2022/08/17 09:47:59;;;;;;;6.05;3.20;;;;;;;27.41;55.87;92974.84;5092712;28;20078;-82
2022/08/17 09:50:30;;;;;;;5.53;3.72;;;;;;;27.66;56.30;92956.50;5092540;28;20043;-82
2022/08/17 09:52:59;;;;;;;5.40;3.40;;;;;;;27.92;55.55;92964.19;5092039;28;20048;-82
2022/08/17 09:55:56;;;;;;;4.88;3.10;;;;;;;28.36;56.85;92969.06;5091675;28;20044;-82
2022/08/17 09:58:40;;;;;;;5.90;3.25;;;;;;;28.38;52.46;92955.53;5092274;28;20048;-83
2022/08/17 10:01:19;;;;;;;4.25;2.70;;;;;;;28.02;50.61;92973.56;5088722;28;20048;-82
2022/08/17 10:04:05;;;;;;;5.38;3.33;;;;;;;28.68;54.35;92945.53;5089475;28;20051;-82
2022/08/17 10:06:44;;;;;;;4.57;2.22;;;;;;;29.13;47.92;92961.59;5091684;28;20484;-84
2022/08/17 10:09:27;;;;;;;5.13;2.92;;;;;;;29.47;48.41;92927.78;5091863;28;20582;-81
2022/08/17 10:12:20;;;;;;;4.05;2.28;;;;;;;29.68;46.38;92934.78;5091922;28;20076;-81
2022/08/17 10:15:04;;;;;;;3.03;2.28;;;;;;;29.67;43.92;92964.97;5092269;28;20080;-82
2022/08/17 10:17:38;;;;;;;4.43;2.40;;;;;;;30.22;44.16;92961.13;5092321;28;20048;-83
2022/08/17 10:20:12;;;;;;;4.15;2.60;;;;;;;29.75;45.81;92958.00;5092612;28;20120;-82
2022/08/17 10:28:21;;;;;;;3.25;2.70;;;;;;;29.53;44.97;92946.09;5090601;28;20051;-82
2022/08/17 10:30:54;;;;;;;3.28;2.58;;;;;;;29.23;45.70;92955.06;5090487;28;20052;-82
2022/08/17 10:33:24;;;;;;;5.20;2.90;;;;;;;28.54;48.62;92958.28;5087843;28;20052;-83
2022/08/17 10:36:00;;;;;;;3.85;2.92;;;;;;;27.95;50.47;92952.97;5088142;28;20047;-85
2022/08/17 10:38:47;;;;;;;4.75;2.85;;;;;;;27.67;50.33;92961.44;5090063;28;20052;-85
2022/08/17 10:41:27;;;;;;;5.57;3.20;;;;;;;27.33;51.47;92940.28;5090766;28;20067;-79
2022/08/17 10:44:07;;;;;;;4.55;2.72;;;;;;;27.18;51.33;92954.81;5091712;28;20056;-83
2022/08/17 10:46:58;;;;;;;7.82;3.25;;;;;;;27.17;52.20;92944.59;5091056;28;20083;-83
2022/08/17 10:49:32;;;;;;;6.00;3.25;;;;;;;27.34;52.67;92941.84;5088460;28;20066;-82
2022/08/17 10:52:01;;;;;;;5.27;3.37;;;;;;;27.46;53.13;92937.72;5079141;28;20421;-81
2022/08/17 10:54:40;;;;;;;4.75;3.20;;;;;;;27.40;51.42;92941.66;5092157;28;20284;-81
2022/08/17 10:57:39;;;;;;;4.50;2.53;;;;;;;27.85;50.92;92940.19;5091185;28;20541;-81
2022/08/17 11:00:35;;;;;;;8.38;3.60;;;;;;;28.36;50.71;92939.22;5085762;28;20052;-82
2022/08/17 11:03:02;;;;;;;4.75;3.08;;;;;;;28.80;50.11;92926.22;5089598;28;20496;-81
2022/08/17 11:05:49;;;;;;;6.82;2.67;;;;;;;29.23;45.28;92920.69;5091264;28;20056;-82
2022/08/17 11:09:07;;;;;;;6.90;3.35;;;;;;;29.92;46.08;92932.34;5088744;28;20134;-82
2022/08/17 11:11:51;;;;;;;4.78;2.92;;;;;;;30.28;43.93;92920.03;5065180;28;20504;-81
2022/08/17 11:14:46;;;;;;;4.85;2.97;;;;;;;30.91;45.95;92928.31;5089024;28;20047;-81
2022/08/17 11:17:36;;;;;;;4.90;2.88;;;;;;;30.71;43.59;92922.16;5090910;28;20055;-81
2022/08/17 11:20:27;;;;;;;3.85;2.75;;;;;;;30.24;44.43;92933.19;5091211;28;20098;-82
2022/08/17 11:23:14;;;;;;;4.95;2.72;;;;;;;30.42;43.89;92938.16;5090967;28;20549;-81
2022/08/17 11:25:46;;;;;;;4.05;2.63;;;;;;;30.56;44.54;92927.13;5091062;28;20063;-82
2022/08/17 11:28:18;;;;;;;4.65;2.78;;;;;;;29.55;43.28;92922.69;5090804;28;20787;-81
2022/08/17 11:30:50;;;;;;;4.80;2.60;;;;;;;28.97;45.04;92926.34;5091110;28;20549;-81
2022/08/17 11:33:55;;;;;;;5.93;2.78;;;;;;;28.22;46.97;92936.84;5091189;28;20058;-81
2022/08/17 11:36:50;;;;;;;4.72;2.92;;;;;;;28.32;48.22;92938.34;5089733;28;20126;-80
2022/08/17 11:39:49;;;;;;;4.45;3.08;;;;;;;28.54;46.77;92934.50;5090546;28;20476;-81
2022/08/17 11:42:29;;;;;;;4.70;2.70;;;;;;;28.66;47.02;92934.50;5090454;28;20109;-82
2022/08/17 11:44:59;;;;;;;7.97;3.35;;;;;;;27.77;48.40;92918.06;5090364;28;20048;-82
2022/08/17 11:54:09;;;;;;;6.63;2.80;;;;;;;28.59;46.23;92926.34;5090457;28;20078;-81
2022/08/17 11:56:43;;;;;;;5.13;2.97;;;;;;;28.41;47.96;92929.22;5090165;28;20496;-82
2022/08/17 11:59:47;;;;;;;9.05;4.05;;;;;;;27.94;47.73;92930.31;5090438;28;20071;-81
2022/08/17 12:02:37;;;;;;;5.13;3.05;;;;;;;27.47;47.85;92908.38;5081726;28;20059;-81
2022/08/17 12:05:27;;;;;;;4.00;2.80;;;;;;;27.39;47.77;92917.13;5090051;28;20052;-82
2022/08/17 12:08:05;;;;;;;5.28;2.80;;;;;;;27.72;48.49;92923.56;5080445;28;20044;-81
2022/08/17 12:10:35;;;;;;;4.30;2.80;;;;;;;28.26;47.51;92920.06;5089854;28;20052;-81
2022/08/17 12:13:07;;;;;;;5.85;2.80;;;;;;;28.02;45.60;92897.00;5090420;28;20047;-82
2022/08/17 12:15:37;;;;;;;6.93;2.47;;;;;;;28.25;45.72;92923.81;5090552;28;20051;-81
2022/08/17 12:18:05;;;;;;;3.88;2.78;;;;;;;28.44;44.91;92927.78;5090351;28;20134;-81
2022/08/17 12:20:34;;;;;;;5.78;3.00;;;;;;;28.21;44.87;92930.81;5090034;28;20113;-80
2022/08/17 12:23:07;;;;;;;3.70;2.95;;;;;;;27.95;46.86;92915.25;5090284;28;20097;-81
2022/08/17 12:25:42;;;;;;;4.43;2.65;;;;;;;28.13;46.04;92926.38;5089985;28;20420;-81
2022/08/17 12:28:22;;;;;;;6.07;3.17;;;;;;;27.76;47.34;92907.84;5089843;28;20370;-81